Arkansas City, Arkansas
Current Conditions -  °F | °C
As of 5:53 PM on Saturday 20 Dec 2014 (Local Time) from KGLH Reporting Station
Clear Clear  
Wind Chill:   Ceiling: Unl
Heat Index:   Visibility: 9mi
Dew Point:   Wind: 5mph
Humidity: 77%   Direction: 30°NNE
Pressure: 30.2"   Gusts: NA
Location:  33.61°N, 91.21°W
Report Text: KGLH 202353Z AUTO 03004KT 9SM CLR 08/04 A3020 RMK AO2 SLP236 T00830044 10122 20083 51005
Loading
Personal Weather Stations






























Interactive Weather Map New forecast layout! Learn more

10-Day Weather Forecast

Advertisements
Track Severe Weather on mobile